sensor_id;sensor_type;location;lat;lon;timestamp;temperature;humidity
11532;DHT22;5822;51.000;5.874;2023-06-22T00:00:52;22.80;99.90
11532;DHT22;5822;51.000;5.874;2023-06-22T00:03:18;22.80;99.90
11532;DHT22;5822;51.000;5.874;2023-06-22T00:05:48;22.80;99.90
11532;DHT22;5822;51.000;5.874;2023-06-22T00:08:14;22.80;99.90
11532;DHT22;5822;51.000;5.874;2023-06-22T00:10:41;22.70;99.90
11532;DHT22;5822;51.000;5.874;2023-06-22T00:13:07;22.70;99.90
11532;DHT22;5822;51.000;5.874;2023-06-22T00:15:34;22.70;99.90
11532;DHT22;5822;51.000;5.874;2023-06-22T00:18:00;22.80;99.90
11532;DHT22;5822;51.000;5.874;2023-06-22T00:20:26;22.70;99.90
11532;DHT22;5822;51.000;5.874;2023-06-22T00:22:56;22.70;99.90
11532;DHT22;5822;51.000;5.874;2023-06-22T00:25:21;22.80;99.90
11532;DHT22;5822;51.000;5.874;2023-06-22T00:27:47;22.70;99.90
11532;DHT22;5822;51.000;5.874;2023-06-22T00:30:15;22.70;99.90
11532;DHT22;5822;51.000;5.874;2023-06-22T00:32:40;22.70;99.90
11532;DHT22;5822;51.000;5.874;2023-06-22T00:35:07;22.70;99.90
11532;DHT22;5822;51.000;5.874;2023-06-22T00:37:33;22.70;99.90
11532;DHT22;5822;51.000;5.874;2023-06-22T00:39:58;22.70;99.90
11532;DHT22;5822;51.000;5.874;2023-06-22T00:42:24;22.70;99.90
11532;DHT22;5822;51.000;5.874;2023-06-22T00:44:50;22.80;99.90
11532;DHT22;5822;51.000;5.874;2023-06-22T00:47:17;22.70;99.90
11532;DHT22;5822;51.000;5.874;2023-06-22T00:49:44;22.70;99.90
11532;DHT22;5822;51.000;5.874;2023-06-22T00:52:11;22.70;99.90
11532;DHT22;5822;51.000;5.874;2023-06-22T00:54:40;22.70;99.90
11532;DHT22;5822;51.000;5.874;2023-06-22T00:57:14;22.70;99.90
11532;DHT22;5822;51.000;5.874;2023-06-22T00:59:43;22.70;99.90
11532;DHT22;5822;51.000;5.874;2023-06-22T01:02:09;22.70;99.90
11532;DHT22;5822;51.000;5.874;2023-06-22T01:04:37;22.60;99.90
11532;DHT22;5822;51.000;5.874;2023-06-22T01:07:19;22.60;99.90
11532;DHT22;5822;51.000;5.874;2023-06-22T01:10:11;22.70;99.90
11532;DHT22;5822;51.000;5.874;2023-06-22T01:12:44;22.60;99.90
11532;DHT22;5822;51.000;5.874;2023-06-22T01:15:16;22.60;99.90
11532;DHT22;5822;51.000;5.874;2023-06-22T01:17:44;22.60;99.90
11532;DHT22;5822;51.000;5.874;2023-06-22T01:20:13;22.60;99.90
11532;DHT22;5822;51.000;5.874;2023-06-22T01:25:33;22.50;99.90
11532;DHT22;5822;51.000;5.874;2023-06-22T01:30:46;22.50;99.90
11532;DHT22;5822;51.000;5.874;2023-06-22T01:33:14;22.50;99.90
11532;DHT22;5822;51.000;5.874;2023-06-22T01:35:41;22.50;99.90
11532;DHT22;5822;51.000;5.874;2023-06-22T01:38:08;22.50;99.90
11532;DHT22;5822;51.000;5.874;2023-06-22T01:40:35;22.50;99.90
11532;DHT22;5822;51.000;5.874;2023-06-22T01:43:02;22.50;99.90
11532;DHT22;5822;51.000;5.874;2023-06-22T01:45:28;22.50;99.90
11532;DHT22;5822;51.000;5.874;2023-06-22T01:47:54;22.50;99.90
11532;DHT22;5822;51.000;5.874;2023-06-22T01:50:21;22.50;99.90
11532;DHT22;5822;51.000;5.874;2023-06-22T01:52:47;22.40;99.90
11532;DHT22;5822;51.000;5.874;2023-06-22T01:55:12;22.40;99.90
11532;DHT22;5822;51.000;5.874;2023-06-22T01:57:38;22.40;99.90
11532;DHT22;5822;51.000;5.874;2023-06-22T02:00:07;22.40;99.90
11532;DHT22;5822;51.000;5.874;2023-06-22T02:02:56;22.40;99.90
11532;DHT22;5822;51.000;5.874;2023-06-22T02:05:28;22.40;99.90
11532;DHT22;5822;51.000;5.874;2023-06-22T02:08:07;22.40;99.90
11532;DHT22;5822;51.000;5.874;2023-06-22T02:10:36;22.40;99.90
11532;DHT22;5822;51.000;5.874;2023-06-22T02:13:06;22.30;99.90
11532;DHT22;5822;51.000;5.874;2023-06-22T02:15:33;22.30;99.90
11532;DHT22;5822;51.000;5.874;2023-06-22T02:17:59;22.30;99.90
11532;DHT22;5822;51.000;5.874;2023-06-22T02:20:25;22.30;99.90
11532;DHT22;5822;51.000;5.874;2023-06-22T02:22:51;22.30;99.90
11532;DHT22;5822;51.000;5.874;2023-06-22T02:25:17;22.30;99.90
11532;DHT22;5822;51.000;5.874;2023-06-22T02:27:42;22.30;99.90
11532;DHT22;5822;51.000;5.874;2023-06-22T02:30:09;22.30;99.90
11532;DHT22;5822;51.000;5.874;2023-06-22T02:32:35;22.30;99.90
11532;DHT22;5822;51.000;5.874;2023-06-22T02:35:01;22.30;99.90
11532;DHT22;5822;51.000;5.874;2023-06-22T02:37:30;22.20;99.90
11532;DHT22;5822;51.000;5.874;2023-06-22T02:39:56;22.20;99.90
11532;DHT22;5822;51.000;5.874;2023-06-22T02:42:21;22.30;99.90
11532;DHT22;5822;51.000;5.874;2023-06-22T02:44:47;22.20;99.90
11532;DHT22;5822;51.000;5.874;2023-06-22T02:47:13;22.20;99.90
11532;DHT22;5822;51.000;5.874;2023-06-22T02:49:39;22.20;99.90
11532;DHT22;5822;51.000;5.874;2023-06-22T02:52:04;22.20;99.90
11532;DHT22;5822;51.000;5.874;2023-06-22T02:54:30;22.20;99.90
11532;DHT22;5822;51.000;5.874;2023-06-22T02:56:56;22.10;99.90
11532;DHT22;5822;51.000;5.874;2023-06-22T02:59:21;22.10;99.90
11532;DHT22;5822;51.000;5.874;2023-06-22T03:01:50;22.10;99.90
11532;DHT22;5822;51.000;5.874;2023-06-22T03:04:16;22.10;99.90
11532;DHT22;5822;51.000;5.874;2023-06-22T03:06:41;22.10;99.90
11532;DHT22;5822;51.000;5.874;2023-06-22T03:09:08;22.10;99.90
11532;DHT22;5822;51.000;5.874;2023-06-22T03:11:34;22.10;99.90
11532;DHT22;5822;51.000;5.874;2023-06-22T03:14:00;22.10;99.90
11532;DHT22;5822;51.000;5.874;2023-06-22T03:16:26;22.10;99.90
11532;DHT22;5822;51.000;5.874;2023-06-22T03:18:52;22.10;99.90
11532;DHT22;5822;51.000;5.874;2023-06-22T03:21:22;22.10;99.90
11532;DHT22;5822;51.000;5.874;2023-06-22T03:23:48;22.10;99.90
11532;DHT22;5822;51.000;5.874;2023-06-22T03:26:17;22.10;99.90
11532;DHT22;5822;51.000;5.874;2023-06-22T03:28:43;22.10;99.90
11532;DHT22;5822;51.000;5.874;2023-06-22T03:31:08;22.10;99.90
11532;DHT22;5822;51.000;5.874;2023-06-22T03:33:34;22.00;99.90
11532;DHT22;5822;51.000;5.874;2023-06-22T03:36:00;22.10;99.90
11532;DHT22;5822;51.000;5.874;2023-06-22T03:38:26;22.00;99.90
11532;DHT22;5822;51.000;5.874;2023-06-22T03:40:51;22.00;99.90
11532;DHT22;5822;51.000;5.874;2023-06-22T03:43:17;22.00;99.90
11532;DHT22;5822;51.000;5.874;2023-06-22T03:45:42;22.00;99.90
11532;DHT22;5822;51.000;5.874;2023-06-22T03:48:11;22.10;99.90
11532;DHT22;5822;51.000;5.874;2023-06-22T03:50:37;22.10;99.90
11532;DHT22;5822;51.000;5.874;2023-06-22T03:53:03;22.10;99.90
11532;DHT22;5822;51.000;5.874;2023-06-22T03:55:28;22.10;99.90
11532;DHT22;5822;51.000;5.874;2023-06-22T03:57:54;22.10;99.90
11532;DHT22;5822;51.000;5.874;2023-06-22T04:00:23;22.10;99.90
11532;DHT22;5822;51.000;5.874;2023-06-22T04:02:48;22.10;99.90
11532;DHT22;5822;51.000;5.874;2023-06-22T04:05:14;22.10;99.90
11532;DHT22;5822;51.000;5.874;2023-06-22T04:07:40;22.10;99.90
11532;DHT22;5822;51.000;5.874;2023-06-22T04:10:06;22.10;99.90
11532;DHT22;5822;51.000;5.874;2023-06-22T04:12:32;22.10;99.90
11532;DHT22;5822;51.000;5.874;2023-06-22T04:14:57;22.10;99.90
11532;DHT22;5822;51.000;5.874;2023-06-22T04:17:23;22.10;99.90
11532;DHT22;5822;51.000;5.874;2023-06-22T04:19:51;22.10;99.90
11532;DHT22;5822;51.000;5.874;2023-06-22T04:22:16;22.10;99.90
11532;DHT22;5822;51.000;5.874;2023-06-22T04:24:42;22.10;99.90
11532;DHT22;5822;51.000;5.874;2023-06-22T04:27:07;22.20;99.90
11532;DHT22;5822;51.000;5.874;2023-06-22T04:29:33;22.20;99.90
11532;DHT22;5822;51.000;5.874;2023-06-22T04:31:59;22.20;99.90
11532;DHT22;5822;51.000;5.874;2023-06-22T04:34:29;22.20;99.90
11532;DHT22;5822;51.000;5.874;2023-06-22T04:36:55;22.20;99.90
11532;DHT22;5822;51.000;5.874;2023-06-22T04:39:21;22.20;99.90
11532;DHT22;5822;51.000;5.874;2023-06-22T04:41:46;22.20;99.90
11532;DHT22;5822;51.000;5.874;2023-06-22T04:44:16;22.20;99.90
11532;DHT22;5822;51.000;5.874;2023-06-22T04:46:58;22.20;99.90
11532;DHT22;5822;51.000;5.874;2023-06-22T04:49:29;22.20;99.90
11532;DHT22;5822;51.000;5.874;2023-06-22T04:52:09;22.20;99.90
11532;DHT22;5822;51.000;5.874;2023-06-22T04:54:36;22.20;99.90
11532;DHT22;5822;51.000;5.874;2023-06-22T04:57:03;22.30;99.90
11532;DHT22;5822;51.000;5.874;2023-06-22T04:59:30;22.30;99.90
11532;DHT22;5822;51.000;5.874;2023-06-22T05:01:57;22.30;99.90
11532;DHT22;5822;51.000;5.874;2023-06-22T05:04:24;22.30;99.90
11532;DHT22;5822;51.000;5.874;2023-06-22T05:06:53;22.30;99.90
11532;DHT22;5822;51.000;5.874;2023-06-22T05:09:19;22.20;99.90
11532;DHT22;5822;51.000;5.874;2023-06-22T05:11:45;22.20;99.90
11532;DHT22;5822;51.000;5.874;2023-06-22T05:14:11;22.20;99.90
11532;DHT22;5822;51.000;5.874;2023-06-22T05:16:38;22.20;99.90
11532;DHT22;5822;51.000;5.874;2023-06-22T05:19:04;22.20;99.90
11532;DHT22;5822;51.000;5.874;2023-06-22T05:21:30;22.30;99.90
11532;DHT22;5822;51.000;5.874;2023-06-22T05:23:56;22.30;99.90
11532;DHT22;5822;51.000;5.874;2023-06-22T05:26:26;22.30;99.90
11532;DHT22;5822;51.000;5.874;2023-06-22T05:28:52;22.30;99.90
11532;DHT22;5822;51.000;5.874;2023-06-22T05:31:18;22.30;99.90
11532;DHT22;5822;51.000;5.874;2023-06-22T05:33:47;22.30;99.90
11532;DHT22;5822;51.000;5.874;2023-06-22T05:36:14;22.30;99.90
11532;DHT22;5822;51.000;5.874;2023-06-22T05:38:41;22.30;99.90
11532;DHT22;5822;51.000;5.874;2023-06-22T05:41:07;22.30;99.90
11532;DHT22;5822;51.000;5.874;2023-06-22T05:43:33;22.30;99.90
11532;DHT22;5822;51.000;5.874;2023-06-22T05:46:00;22.30;99.90
11532;DHT22;5822;51.000;5.874;2023-06-22T05:48:26;22.20;99.90
11532;DHT22;5822;51.000;5.874;2023-06-22T05:50:52;22.20;99.90
11532;DHT22;5822;51.000;5.874;2023-06-22T05:53:18;22.20;99.90
11532;DHT22;5822;51.000;5.874;2023-06-22T05:55:44;22.20;99.90
11532;DHT22;5822;51.000;5.874;2023-06-22T05:58:09;22.20;99.90
11532;DHT22;5822;51.000;5.874;2023-06-22T06:00:35;22.20;99.90
11532;DHT22;5822;51.000;5.874;2023-06-22T06:03:01;22.20;99.90
11532;DHT22;5822;51.000;5.874;2023-06-22T06:05:31;22.20;99.90
11532;DHT22;5822;51.000;5.874;2023-06-22T06:07:56;22.20;99.90
11532;DHT22;5822;51.000;5.874;2023-06-22T06:10:22;22.20;99.90
11532;DHT22;5822;51.000;5.874;2023-06-22T06:12:48;22.20;99.90
11532;DHT22;5822;51.000;5.874;2023-06-22T06:15:13;22.20;99.90
11532;DHT22;5822;51.000;5.874;2023-06-22T06:17:49;22.20;99.90
11532;DHT22;5822;51.000;5.874;2023-06-22T06:20:17;22.10;99.90
11532;DHT22;5822;51.000;5.874;2023-06-22T06:22:43;22.10;99.90
11532;DHT22;5822;51.000;5.874;2023-06-22T06:25:09;22.10;99.90
11532;DHT22;5822;51.000;5.874;2023-06-22T06:27:35;22.10;99.90
11532;DHT22;5822;51.000;5.874;2023-06-22T06:30:00;22.20;99.90
11532;DHT22;5822;51.000;5.874;2023-06-22T06:32:27;22.20;99.90
11532;DHT22;5822;51.000;5.874;2023-06-22T06:34:52;22.20;99.90
11532;DHT22;5822;51.000;5.874;2023-06-22T06:37:18;22.20;99.90
11532;DHT22;5822;51.000;5.874;2023-06-22T06:39:44;22.20;99.90
11532;DHT22;5822;51.000;5.874;2023-06-22T06:42:10;22.20;99.90
11532;DHT22;5822;51.000;5.874;2023-06-22T06:44:36;22.30;99.90
11532;DHT22;5822;51.000;5.874;2023-06-22T06:47:04;22.30;99.90
11532;DHT22;5822;51.000;5.874;2023-06-22T06:49:29;22.40;99.90
11532;DHT22;5822;51.000;5.874;2023-06-22T06:51:55;22.40;99.90
11532;DHT22;5822;51.000;5.874;2023-06-22T06:54:21;22.50;99.90
11532;DHT22;5822;51.000;5.874;2023-06-22T06:56:47;22.50;99.90
11532;DHT22;5822;51.000;5.874;2023-06-22T06:59:14;22.60;99.90
11532;DHT22;5822;51.000;5.874;2023-06-22T07:01:41;22.60;99.90
11532;DHT22;5822;51.000;5.874;2023-06-22T07:04:06;22.60;99.90
11532;DHT22;5822;51.000;5.874;2023-06-22T07:06:32;22.70;99.90
11532;DHT22;5822;51.000;5.874;2023-06-22T07:08:59;22.70;99.90
11532;DHT22;5822;51.000;5.874;2023-06-22T07:11:25;22.80;99.90
11532;DHT22;5822;51.000;5.874;2023-06-22T07:13:50;22.80;99.90
11532;DHT22;5822;51.000;5.874;2023-06-22T07:16:16;22.90;99.90
11532;DHT22;5822;51.000;5.874;2023-06-22T07:18:42;22.90;99.90
11532;DHT22;5822;51.000;5.874;2023-06-22T07:21:07;22.90;99.90
11532;DHT22;5822;51.000;5.874;2023-06-22T07:23:33;23.00;99.90
11532;DHT22;5822;51.000;5.874;2023-06-22T07:25:59;23.00;99.90
11532;DHT22;5822;51.000;5.874;2023-06-22T07:28:28;23.10;99.90
11532;DHT22;5822;51.000;5.874;2023-06-22T07:30:57;23.20;99.90
11532;DHT22;5822;51.000;5.874;2023-06-22T07:33:22;23.20;99.90
11532;DHT22;5822;51.000;5.874;2023-06-22T07:35:48;23.20;99.90
11532;DHT22;5822;51.000;5.874;2023-06-22T07:38:15;23.30;99.90
11532;DHT22;5822;51.000;5.874;2023-06-22T07:40:41;23.30;99.90
11532;DHT22;5822;51.000;5.874;2023-06-22T07:43:07;23.30;99.90
11532;DHT22;5822;51.000;5.874;2023-06-22T07:45:33;23.30;99.90
11532;DHT22;5822;51.000;5.874;2023-06-22T07:48:00;23.40;99.90
11532;DHT22;5822;51.000;5.874;2023-06-22T07:50:26;23.40;99.90
11532;DHT22;5822;51.000;5.874;2023-06-22T07:52:55;23.40;99.90
11532;DHT22;5822;51.000;5.874;2023-06-22T07:55:20;23.40;99.90
11532;DHT22;5822;51.000;5.874;2023-06-22T07:57:48;23.40;99.90
11532;DHT22;5822;51.000;5.874;2023-06-22T08:00:14;23.40;99.90
11532;DHT22;5822;51.000;5.874;2023-06-22T08:02:42;23.40;99.90
11532;DHT22;5822;51.000;5.874;2023-06-22T08:05:09;23.40;99.90
11532;DHT22;5822;51.000;5.874;2023-06-22T08:07:38;23.40;99.90
11532;DHT22;5822;51.000;5.874;2023-06-22T08:10:05;23.40;99.90
11532;DHT22;5822;51.000;5.874;2023-06-22T08:12:31;23.40;99.90
11532;DHT22;5822;51.000;5.874;2023-06-22T08:14:57;23.40;99.90
11532;DHT22;5822;51.000;5.874;2023-06-22T08:17:24;23.40;99.90
11532;DHT22;5822;51.000;5.874;2023-06-22T08:19:50;23.40;99.90
11532;DHT22;5822;51.000;5.874;2023-06-22T08:22:16;23.40;99.90
11532;DHT22;5822;51.000;5.874;2023-06-22T08:24:42;23.40;99.90
11532;DHT22;5822;51.000;5.874;2023-06-22T08:27:08;23.40;99.90
11532;DHT22;5822;51.000;5.874;2023-06-22T08:29:40;23.40;99.90
11532;DHT22;5822;51.000;5.874;2023-06-22T08:32:11;23.40;99.90
11532;DHT22;5822;51.000;5.874;2023-06-22T08:34:37;23.40;99.90
11532;DHT22;5822;51.000;5.874;2023-06-22T08:37:02;23.50;99.90
11532;DHT22;5822;51.000;5.874;2023-06-22T08:39:31;23.50;99.90
11532;DHT22;5822;51.000;5.874;2023-06-22T08:41:57;23.50;99.90
11532;DHT22;5822;51.000;5.874;2023-06-22T08:44:23;23.60;99.90
11532;DHT22;5822;51.000;5.874;2023-06-22T08:46:48;23.60;99.90
11532;DHT22;5822;51.000;5.874;2023-06-22T08:49:16;23.60;99.90
11532;DHT22;5822;51.000;5.874;2023-06-22T08:51:41;23.70;99.90
11532;DHT22;5822;51.000;5.874;2023-06-22T08:54:07;23.70;99.90
11532;DHT22;5822;51.000;5.874;2023-06-22T08:56:33;23.80;99.90
11532;DHT22;5822;51.000;5.874;2023-06-22T08:58:59;23.80;99.90
11532;DHT22;5822;51.000;5.874;2023-06-22T09:01:25;23.80;99.90
11532;DHT22;5822;51.000;5.874;2023-06-22T09:03:51;23.90;99.90
11532;DHT22;5822;51.000;5.874;2023-06-22T09:06:21;23.90;99.90
11532;DHT22;5822;51.000;5.874;2023-06-22T09:08:47;24.00;99.90
11532;DHT22;5822;51.000;5.874;2023-06-22T09:11:13;24.00;99.90
11532;DHT22;5822;51.000;5.874;2023-06-22T09:13:38;24.00;99.90
11532;DHT22;5822;51.000;5.874;2023-06-22T09:16:05;24.00;99.90
11532;DHT22;5822;51.000;5.874;2023-06-22T09:18:32;24.10;99.90
11532;DHT22;5822;51.000;5.874;2023-06-22T09:20:57;24.10;99.90
11532;DHT22;5822;51.000;5.874;2023-06-22T09:23:23;24.20;99.90
11532;DHT22;5822;51.000;5.874;2023-06-22T09:25:49;24.20;99.90
11532;DHT22;5822;51.000;5.874;2023-06-22T09:28:15;24.20;99.90
11532;DHT22;5822;51.000;5.874;2023-06-22T09:30:40;24.20;99.90
11532;DHT22;5822;51.000;5.874;2023-06-22T09:33:06;24.20;99.90
11532;DHT22;5822;51.000;5.874;2023-06-22T09:35:31;24.10;99.90
11532;DHT22;5822;51.000;5.874;2023-06-22T09:37:57;24.10;99.90
11532;DHT22;5822;51.000;5.874;2023-06-22T09:40:23;24.10;99.90
11532;DHT22;5822;51.000;5.874;2023-06-22T09:42:48;24.10;99.90
11532;DHT22;5822;51.000;5.874;2023-06-22T09:45:14;24.20;99.90
11532;DHT22;5822;51.000;5.874;2023-06-22T09:47:40;24.20;99.90
11532;DHT22;5822;51.000;5.874;2023-06-22T09:50:06;24.20;99.90
11532;DHT22;5822;51.000;5.874;2023-06-22T09:52:32;24.20;99.90
11532;DHT22;5822;51.000;5.874;2023-06-22T09:54:57;24.10;99.90
11532;DHT22;5822;51.000;5.874;2023-06-22T09:57:23;24.10;99.90
11532;DHT22;5822;51.000;5.874;2023-06-22T09:59:49;24.20;99.90
11532;DHT22;5822;51.000;5.874;2023-06-22T10:02:14;24.10;99.90
11532;DHT22;5822;51.000;5.874;2023-06-22T10:04:40;24.10;99.90
11532;DHT22;5822;51.000;5.874;2023-06-22T10:07:06;24.10;99.90
11532;DHT22;5822;51.000;5.874;2023-06-22T10:09:32;24.10;99.90
11532;DHT22;5822;51.000;5.874;2023-06-22T10:11:57;24.10;99.90
11532;DHT22;5822;51.000;5.874;2023-06-22T10:14:23;24.10;99.90
11532;DHT22;5822;51.000;5.874;2023-06-22T10:16:52;24.00;99.90
11532;DHT22;5822;51.000;5.874;2023-06-22T10:19:17;24.00;99.90
11532;DHT22;5822;51.000;5.874;2023-06-22T10:21:43;24.00;99.90
11532;DHT22;5822;51.000;5.874;2023-06-22T10:24:09;23.90;99.90
11532;DHT22;5822;51.000;5.874;2023-06-22T10:26:35;23.90;99.90
11532;DHT22;5822;51.000;5.874;2023-06-22T10:29:02;23.90;99.90
11532;DHT22;5822;51.000;5.874;2023-06-22T10:31:28;23.80;99.90
11532;DHT22;5822;51.000;5.874;2023-06-22T10:33:54;23.80;99.90
11532;DHT22;5822;51.000;5.874;2023-06-22T10:36:21;23.70;99.90
11532;DHT22;5822;51.000;5.874;2023-06-22T10:38:47;23.70;99.90
11532;DHT22;5822;51.000;5.874;2023-06-22T10:41:13;23.70;99.90
11532;DHT22;5822;51.000;5.874;2023-06-22T10:43:39;23.60;99.90
11532;DHT22;5822;51.000;5.874;2023-06-22T10:46:06;23.60;99.90
11532;DHT22;5822;51.000;5.874;2023-06-22T10:48:32;23.60;99.90
11532;DHT22;5822;51.000;5.874;2023-06-22T10:50:57;23.60;99.90
11532;DHT22;5822;51.000;5.874;2023-06-22T10:53:23;23.50;99.90
11532;DHT22;5822;51.000;5.874;2023-06-22T10:55:49;23.50;99.90
11532;DHT22;5822;51.000;5.874;2023-06-22T10:58:15;23.40;99.90
11532;DHT22;5822;51.000;5.874;2023-06-22T11:00:40;23.40;99.90
11532;DHT22;5822;51.000;5.874;2023-06-22T11:03:06;23.40;99.90
11532;DHT22;5822;51.000;5.874;2023-06-22T11:05:32;23.30;99.90
11532;DHT22;5822;51.000;5.874;2023-06-22T11:07:58;23.40;99.90
11532;DHT22;5822;51.000;5.874;2023-06-22T11:10:23;23.40;99.90
11532;DHT22;5822;51.000;5.874;2023-06-22T11:12:49;23.50;99.90
11532;DHT22;5822;51.000;5.874;2023-06-22T11:15:14;23.60;99.90
11532;DHT22;5822;51.000;5.874;2023-06-22T11:17:40;23.60;99.90
11532;DHT22;5822;51.000;5.874;2023-06-22T11:20:06;23.70;99.90
11532;DHT22;5822;51.000;5.874;2023-06-22T11:22:40;23.70;99.90
11532;DHT22;5822;51.000;5.874;2023-06-22T11:25:07;23.70;99.90
11532;DHT22;5822;51.000;5.874;2023-06-22T11:27:32;23.80;99.90
11532;DHT22;5822;51.000;5.874;2023-06-22T11:29:58;23.80;99.90
11532;DHT22;5822;51.000;5.874;2023-06-22T11:32:24;23.90;99.90
11532;DHT22;5822;51.000;5.874;2023-06-22T11:34:50;24.00;99.90
11532;DHT22;5822;51.000;5.874;2023-06-22T11:37:15;24.00;99.90
11532;DHT22;5822;51.000;5.874;2023-06-22T11:39:42;24.10;99.90
11532;DHT22;5822;51.000;5.874;2023-06-22T11:42:09;24.20;99.90
11532;DHT22;5822;51.000;5.874;2023-06-22T11:44:35;24.20;99.90
11532;DHT22;5822;51.000;5.874;2023-06-22T11:47:00;24.20;99.90
11532;DHT22;5822;51.000;5.874;2023-06-22T11:49:29;24.20;99.90
11532;DHT22;5822;51.000;5.874;2023-06-22T11:51:55;24.20;99.90
11532;DHT22;5822;51.000;5.874;2023-06-22T11:54:20;24.20;99.90
11532;DHT22;5822;51.000;5.874;2023-06-22T11:56:46;24.20;99.90
11532;DHT22;5822;51.000;5.874;2023-06-22T11:59:12;24.20;99.90
11532;DHT22;5822;51.000;5.874;2023-06-22T12:01:38;24.20;99.90
11532;DHT22;5822;51.000;5.874;2023-06-22T12:04:04;24.20;99.90
11532;DHT22;5822;51.000;5.874;2023-06-22T12:06:32;24.20;99.90
11532;DHT22;5822;51.000;5.874;2023-06-22T12:08:58;24.20;99.90
11532;DHT22;5822;51.000;5.874;2023-06-22T12:11:23;24.10;99.90
11532;DHT22;5822;51.000;5.874;2023-06-22T12:13:49;24.00;99.90
11532;DHT22;5822;51.000;5.874;2023-06-22T12:16:15;24.00;99.90
11532;DHT22;5822;51.000;5.874;2023-06-22T12:18:40;23.90;99.90
11532;DHT22;5822;51.000;5.874;2023-06-22T12:21:06;23.80;99.90
11532;DHT22;5822;51.000;5.874;2023-06-22T12:23:32;23.80;99.90
11532;DHT22;5822;51.000;5.874;2023-06-22T12:25:57;23.80;99.90
11532;DHT22;5822;51.000;5.874;2023-06-22T12:28:24;23.70;99.90
11532;DHT22;5822;51.000;5.874;2023-06-22T12:30:50;23.70;99.90
11532;DHT22;5822;51.000;5.874;2023-06-22T12:33:16;23.70;99.90
11532;DHT22;5822;51.000;5.874;2023-06-22T12:35:41;23.60;99.90
11532;DHT22;5822;51.000;5.874;2023-06-22T12:38:07;23.60;99.90
11532;DHT22;5822;51.000;5.874;2023-06-22T12:40:33;23.60;99.90
11532;DHT22;5822;51.000;5.874;2023-06-22T12:42:59;23.50;99.90
11532;DHT22;5822;51.000;5.874;2023-06-22T12:45:25;23.60;99.90
11532;DHT22;5822;51.000;5.874;2023-06-22T12:47:54;23.60;99.90
11532;DHT22;5822;51.000;5.874;2023-06-22T12:50:20;23.60;99.90
11532;DHT22;5822;51.000;5.874;2023-06-22T12:52:45;23.60;99.90
11532;DHT22;5822;51.000;5.874;2023-06-22T12:55:11;23.60;99.90
11532;DHT22;5822;51.000;5.874;2023-06-22T12:57:36;23.60;99.90
11532;DHT22;5822;51.000;5.874;2023-06-22T13:00:02;23.60;99.90
11532;DHT22;5822;51.000;5.874;2023-06-22T13:02:30;23.60;99.90
11532;DHT22;5822;51.000;5.874;2023-06-22T13:04:55;23.60;99.90
11532;DHT22;5822;51.000;5.874;2023-06-22T13:07:21;23.60;99.90
11532;DHT22;5822;51.000;5.874;2023-06-22T13:09:47;23.60;99.90
11532;DHT22;5822;51.000;5.874;2023-06-22T13:12:16;23.50;99.90
11532;DHT22;5822;51.000;5.874;2023-06-22T13:14:42;23.60;99.90
11532;DHT22;5822;51.000;5.874;2023-06-22T13:17:08;23.50;99.90
11532;DHT22;5822;51.000;5.874;2023-06-22T13:19:34;23.50;99.90
11532;DHT22;5822;51.000;5.874;2023-06-22T13:22:00;23.50;99.90
11532;DHT22;5822;51.000;5.874;2023-06-22T13:24:26;23.60;99.90
11532;DHT22;5822;51.000;5.874;2023-06-22T13:26:51;23.60;99.90
11532;DHT22;5822;51.000;5.874;2023-06-22T13:29:17;23.50;99.90
11532;DHT22;5822;51.000;5.874;2023-06-22T13:31:43;23.60;99.90
11532;DHT22;5822;51.000;5.874;2023-06-22T13:34:08;23.60;99.90
11532;DHT22;5822;51.000;5.874;2023-06-22T13:36:34;23.60;99.90
11532;DHT22;5822;51.000;5.874;2023-06-22T13:38:59;23.60;99.90
11532;DHT22;5822;51.000;5.874;2023-06-22T13:41:25;23.50;99.90
11532;DHT22;5822;51.000;5.874;2023-06-22T13:43:51;23.50;99.90
11532;DHT22;5822;51.000;5.874;2023-06-22T13:46:17;23.50;99.90
11532;DHT22;5822;51.000;5.874;2023-06-22T13:48:42;23.50;99.90
11532;DHT22;5822;51.000;5.874;2023-06-22T13:51:08;23.40;99.90
11532;DHT22;5822;51.000;5.874;2023-06-22T13:53:33;23.40;99.90
11532;DHT22;5822;51.000;5.874;2023-06-22T13:55:59;23.30;99.90
11532;DHT22;5822;51.000;5.874;2023-06-22T13:58:25;23.30;99.90
11532;DHT22;5822;51.000;5.874;2023-06-22T14:00:51;23.30;99.90
11532;DHT22;5822;51.000;5.874;2023-06-22T14:03:16;23.20;99.90
11532;DHT22;5822;51.000;5.874;2023-06-22T14:05:42;23.10;99.90
11532;DHT22;5822;51.000;5.874;2023-06-22T14:08:08;23.00;99.90
11532;DHT22;5822;51.000;5.874;2023-06-22T14:10:34;23.10;99.90
11532;DHT22;5822;51.000;5.874;2023-06-22T14:13:00;23.00;99.90
11532;DHT22;5822;51.000;5.874;2023-06-22T14:15:26;23.00;99.90
11532;DHT22;5822;51.000;5.874;2023-06-22T14:17:52;22.90;99.90
11532;DHT22;5822;51.000;5.874;2023-06-22T14:20:18;22.70;99.90
11532;DHT22;5822;51.000;5.874;2023-06-22T14:22:43;22.60;99.90
11532;DHT22;5822;51.000;5.874;2023-06-22T14:25:09;22.50;99.90
11532;DHT22;5822;51.000;5.874;2023-06-22T14:27:35;22.40;99.90
11532;DHT22;5822;51.000;5.874;2023-06-22T14:30:00;22.40;99.90
11532;DHT22;5822;51.000;5.874;2023-06-22T14:32:27;22.30;99.90
11532;DHT22;5822;51.000;5.874;2023-06-22T14:34:55;22.30;99.90
11532;DHT22;5822;51.000;5.874;2023-06-22T14:37:21;22.20;99.90
11532;DHT22;5822;51.000;5.874;2023-06-22T14:39:46;22.20;99.90
11532;DHT22;5822;51.000;5.874;2023-06-22T14:42:12;22.10;99.90
11532;DHT22;5822;51.000;5.874;2023-06-22T14:44:38;22.10;99.90
11532;DHT22;5822;51.000;5.874;2023-06-22T14:47:03;22.00;99.90
11532;DHT22;5822;51.000;5.874;2023-06-22T14:49:29;21.90;99.90
11532;DHT22;5822;51.000;5.874;2023-06-22T14:51:55;21.80;99.90
11532;DHT22;5822;51.000;5.874;2023-06-22T14:54:21;21.80;99.90
11532;DHT22;5822;51.000;5.874;2023-06-22T14:56:47;21.60;99.90
11532;DHT22;5822;51.000;5.874;2023-06-22T14:59:13;21.60;99.90
11532;DHT22;5822;51.000;5.874;2023-06-22T15:01:39;21.50;99.90
11532;DHT22;5822;51.000;5.874;2023-06-22T15:04:04;21.40;99.90
11532;DHT22;5822;51.000;5.874;2023-06-22T15:06:30;21.30;99.90
11532;DHT22;5822;51.000;5.874;2023-06-22T15:08:55;21.20;99.90
11532;DHT22;5822;51.000;5.874;2023-06-22T15:11:21;21.20;99.90
11532;DHT22;5822;51.000;5.874;2023-06-22T15:13:47;21.20;99.90
11532;DHT22;5822;51.000;5.874;2023-06-22T15:16:12;21.10;99.90
11532;DHT22;5822;51.000;5.874;2023-06-22T15:18:38;21.10;99.90
11532;DHT22;5822;51.000;5.874;2023-06-22T15:21:06;21.00;99.90
11532;DHT22;5822;51.000;5.874;2023-06-22T15:23:32;21.00;99.90
11532;DHT22;5822;51.000;5.874;2023-06-22T15:26:00;20.90;99.90
11532;DHT22;5822;51.000;5.874;2023-06-22T15:28:27;20.80;99.90
11532;DHT22;5822;51.000;5.874;2023-06-22T15:30:53;20.70;99.90
11532;DHT22;5822;51.000;5.874;2023-06-22T15:33:19;20.60;99.90
11532;DHT22;5822;51.000;5.874;2023-06-22T15:35:47;20.50;99.90
11532;DHT22;5822;51.000;5.874;2023-06-22T15:38:13;20.40;99.90
11532;DHT22;5822;51.000;5.874;2023-06-22T15:40:39;20.40;99.90
11532;DHT22;5822;51.000;5.874;2023-06-22T15:43:04;20.30;99.90
11532;DHT22;5822;51.000;5.874;2023-06-22T15:45:30;20.20;99.90